Time;durP1;ratioP1;P1;durP2;ratioP2;P2;SDS_P1;SDS_P2;PMS_P1;PMS_P2;Temp;Humidity;BMP_temperature;BMP_pressure;BME280_temperature;BME280_humidity;BME280_pressure;Samples;Min_cycle;Max_cycle;Signal;HPM_P1;HPM_P2
2022/10/07 00:00:28;;;;;;;;;;;12.10;99.90;;;;;;5108178;27;36689;-58
2022/10/07 00:02:56;;;;;;;;;;;12.10;99.90;;;;;;5109937;27;37898;-58
2022/10/07 00:05:23;;;;;;;;;;;12.10;99.90;;;;;;5110994;27;37222;-58
2022/10/07 00:07:50;;;;;;;;;;;12.10;99.90;;;;;;5110466;27;36447;-58
2022/10/07 00:10:17;;;;;;;;;;;12.00;99.90;;;;;;5109745;27;38386;-58
2022/10/07 00:12:44;;;;;;;;;;;12.10;99.90;;;;;;5109539;27;35954;-58
2022/10/07 00:15:12;;;;;;;;;;;12.00;99.90;;;;;;5109738;27;36189;-58
2022/10/07 00:17:39;;;;;;;;;;;12.00;99.90;;;;;;5110113;27;37608;-58
2022/10/07 00:20:08;;;;;;;;;;;12.00;99.90;;;;;;5111261;27;37434;-58
2022/10/07 00:22:35;;;;;;;;;;;12.10;99.90;;;;;;5109363;27;39123;-58
2022/10/07 00:25:02;;;;;;;;;;;12.00;99.90;;;;;;5109404;27;36352;-61
2022/10/07 00:27:29;;;;;;;;;;;12.00;99.90;;;;;;5109469;27;39541;-58
2022/10/07 00:29:56;;;;;;;;;;;12.00;99.90;;;;;;5109004;27;37980;-58
2022/10/07 00:32:23;;;;;;;;;;;12.00;99.90;;;;;;5109404;27;36444;-60
2022/10/07 00:34:51;;;;;;;;;;;11.90;99.90;;;;;;5111253;27;35924;-58
2022/10/07 00:37:19;;;;;;;;;;;11.90;99.90;;;;;;5109691;27;38003;-60
2022/10/07 00:39:46;;;;;;;;;;;12.00;99.90;;;;;;5109108;27;38067;-61
2022/10/07 00:42:13;;;;;;;;;;;12.00;99.90;;;;;;5110405;27;37228;-60
2022/10/07 00:44:42;;;;;;;;;;;12.00;99.90;;;;;;5109733;27;37139;-60
2022/10/07 00:47:13;;;;;;;;;;;12.00;99.90;;;;;;5110548;27;38455;-58
2022/10/07 00:49:43;;;;;;;;;;;11.90;99.90;;;;;;5110894;27;39350;-60
2022/10/07 00:52:11;;;;;;;;;;;12.00;99.90;;;;;;5111136;27;35825;-58
2022/10/07 00:54:40;;;;;;;;;;;11.90;99.90;;;;;;5108667;27;36340;-58
2022/10/07 00:57:07;;;;;;;;;;;11.90;99.90;;;;;;5109691;27;36172;-58
2022/10/07 00:59:38;;;;;;;;;;;11.90;99.90;;;;;;5108080;27;39569;-59
2022/10/07 01:02:06;;;;;;;;;;;11.90;99.90;;;;;;5108762;27;37379;-58
2022/10/07 01:04:33;;;;;;;;;;;11.90;99.90;;;;;;5109591;27;36141;-58
2022/10/07 01:07:00;;;;;;;;;;;11.90;99.90;;;;;;5110058;27;37759;-60
2022/10/07 01:09:27;;;;;;;;;;;11.90;99.90;;;;;;5108514;27;37667;-60
2022/10/07 01:11:59;;;;;;;;;;;11.80;99.90;;;;;;5106898;27;37275;-59
2022/10/07 01:14:32;;;;;;;;;;;11.90;99.90;;;;;;5109183;27;36385;-58
2022/10/07 01:17:01;;;;;;;;;;;11.90;99.90;;;;;;5109637;27;37564;-60
2022/10/07 01:19:35;;;;;;;;;;;11.80;99.90;;;;;;5109409;27;37851;-58
2022/10/07 01:22:09;;;;;;;;;;;11.80;99.90;;;;;;5108211;27;36053;-58
2022/10/07 01:24:39;;;;;;;;;;;11.80;99.90;;;;;;5108828;27;35941;-60
2022/10/07 01:27:10;;;;;;;;;;;11.70;99.90;;;;;;5110066;27;38527;-58
2022/10/07 01:29:39;;;;;;;;;;;11.80;99.90;;;;;;5108222;27;37000;-58
2022/10/07 01:32:11;;;;;;;;;;;11.80;99.90;;;;;;5107161;27;37517;-58
2022/10/07 01:34:38;;;;;;;;;;;11.90;99.90;;;;;;5108187;27;36572;-58
2022/10/07 01:37:08;;;;;;;;;;;11.80;99.90;;;;;;5107236;27;37973;-57
2022/10/07 01:39:38;;;;;;;;;;;11.80;99.90;;;;;;5109850;27;38598;-58
2022/10/07 01:42:06;;;;;;;;;;;11.80;99.90;;;;;;5107808;27;38254;-60
2022/10/07 01:44:35;;;;;;;;;;;11.80;99.90;;;;;;5108325;27;36517;-60
2022/10/07 01:47:02;;;;;;;;;;;11.80;99.90;;;;;;5109799;27;36535;-58
2022/10/07 01:49:29;;;;;;;;;;;11.80;99.90;;;;;;5106216;27;38215;-58
2022/10/07 01:52:03;;;;;;;;;;;11.80;99.90;;;;;;5107251;27;38059;-60
2022/10/07 01:54:39;;;;;;;;;;;11.80;99.90;;;;;;5107691;27;36911;-58
2022/10/07 01:57:11;;;;;;;;;;;11.80;99.90;;;;;;5109494;27;37937;-60
2022/10/07 02:00:00;;;;;;;;;;;11.80;99.90;;;;;;5108943;27;37820;-60
2022/10/07 02:02:34;;;;;;;;;;;11.80;99.90;;;;;;5107836;27;38933;-60
2022/10/07 02:05:09;;;;;;;;;;;11.80;99.90;;;;;;5108753;27;36361;-58
2022/10/07 02:07:43;;;;;;;;;;;11.80;99.90;;;;;;5106804;27;37665;-60
2022/10/07 02:10:12;;;;;;;;;;;11.80;99.90;;;;;;5107658;27;36803;-60
2022/10/07 02:12:42;;;;;;;;;;;11.80;99.90;;;;;;5108493;27;37390;-60
2022/10/07 02:15:14;;;;;;;;;;;11.80;99.90;;;;;;5109270;27;36138;-60
2022/10/07 02:17:44;;;;;;;;;;;11.80;99.90;;;;;;5107905;27;36614;-60
2022/10/07 02:20:12;;;;;;;;;;;11.70;99.90;;;;;;5108944;27;38592;-60
2022/10/07 02:22:41;;;;;;;;;;;11.70;99.90;;;;;;5107675;27;38911;-60
2022/10/07 02:25:09;;;;;;;;;;;11.80;99.90;;;;;;5109422;27;36912;-58
2022/10/07 02:27:37;;;;;;;;;;;11.70;99.90;;;;;;5108745;27;37870;-58
2022/10/07 02:30:06;;;;;;;;;;;11.70;99.90;;;;;;5109007;27;37873;-60
2022/10/07 02:32:36;;;;;;;;;;;11.70;99.90;;;;;;5108217;27;38178;-60
2022/10/07 02:35:05;;;;;;;;;;;11.70;99.90;;;;;;5107098;27;36095;-58
2022/10/07 02:37:35;;;;;;;;;;;11.70;99.90;;;;;;5107527;27;36062;-58
2022/10/07 02:40:02;;;;;;;;;;;11.70;99.90;;;;;;5106642;27;38072;-60
2022/10/07 02:42:32;;;;;;;;;;;11.70;99.90;;;;;;5107108;27;37027;-60
2022/10/07 02:45:01;;;;;;;;;;;11.70;99.90;;;;;;5108672;27;36051;-60
2022/10/07 02:47:30;;;;;;;;;;;11.60;99.90;;;;;;5108377;27;40826;-60
2022/10/07 02:50:00;;;;;;;;;;;11.70;99.90;;;;;;5107123;27;37624;-60
2022/10/07 02:52:30;;;;;;;;;;;11.60;99.90;;;;;;5107227;27;38514;-60
2022/10/07 02:54:58;;;;;;;;;;;11.60;99.90;;;;;;5108511;27;36828;-60
2022/10/07 02:57:26;;;;;;;;;;;11.60;99.90;;;;;;5108122;27;37906;-58
2022/10/07 02:59:54;;;;;;;;;;;11.60;99.90;;;;;;5108062;27;38149;-58
2022/10/07 03:02:24;;;;;;;;;;;11.60;99.90;;;;;;5107407;27;38983;-58
2022/10/07 03:04:51;;;;;;;;;;;11.60;99.90;;;;;;5106856;27;38550;-58
2022/10/07 03:07:20;;;;;;;;;;;11.60;99.90;;;;;;5107098;27;38442;-58
2022/10/07 03:09:47;;;;;;;;;;;11.50;99.90;;;;;;5107909;27;39055;-60
2022/10/07 03:12:14;;;;;;;;;;;11.40;99.90;;;;;;5106433;27;36105;-58
2022/10/07 03:14:43;;;;;;;;;;;11.50;99.90;;;;;;5107024;27;36481;-60
2022/10/07 03:17:10;;;;;;;;;;;11.50;99.90;;;;;;5107873;27;37145;-60
2022/10/07 03:19:37;;;;;;;;;;;11.50;99.90;;;;;;5106305;27;38773;-60
2022/10/07 03:22:04;;;;;;;;;;;11.40;99.90;;;;;;5106133;27;39514;-58
2022/10/07 03:24:33;;;;;;;;;;;11.40;99.90;;;;;;5107118;27;36515;-58
2022/10/07 03:27:00;;;;;;;;;;;11.40;99.90;;;;;;5106904;27;39313;-60
2022/10/07 03:29:29;;;;;;;;;;;11.40;99.90;;;;;;5106678;27;37781;-58
2022/10/07 03:31:56;;;;;;;;;;;11.40;99.90;;;;;;5106437;27;37746;-60
2022/10/07 03:34:25;;;;;;;;;;;11.40;99.90;;;;;;5107294;27;37032;-60
2022/10/07 03:36:53;;;;;;;;;;;11.40;99.90;;;;;;5106706;27;37739;-58
2022/10/07 03:39:20;;;;;;;;;;;11.40;99.90;;;;;;5106929;27;37761;-58
2022/10/07 03:41:50;;;;;;;;;;;11.40;99.90;;;;;;5106838;27;35960;-58
2022/10/07 03:44:18;;;;;;;;;;;11.40;99.90;;;;;;5106901;27;36462;-58
2022/10/07 03:46:47;;;;;;;;;;;11.40;99.90;;;;;;5105970;27;39257;-58
2022/10/07 03:49:15;;;;;;;;;;;11.30;99.90;;;;;;5105676;27;38958;-59
2022/10/07 03:51:42;;;;;;;;;;;11.30;99.90;;;;;;5105743;27;37341;-60
2022/10/07 03:54:09;;;;;;;;;;;11.30;99.90;;;;;;5105901;27;37734;-58
2022/10/07 03:56:36;;;;;;;;;;;11.30;99.90;;;;;;5107932;27;38908;-58
2022/10/07 03:59:04;;;;;;;;;;;11.30;99.90;;;;;;5106469;27;36882;-58
2022/10/07 04:01:31;;;;;;;;;;;11.30;99.90;;;;;;5106966;27;36902;-59
2022/10/07 04:03:59;;;;;;;;;;;11.30;99.90;;;;;;5105182;27;36300;-59
2022/10/07 04:06:26;;;;;;;;;;;11.30;99.90;;;;;;5107234;27;37483;-58
2022/10/07 04:08:54;;;;;;;;;;;11.20;99.90;;;;;;5107050;27;39790;-60
2022/10/07 04:11:21;;;;;;;;;;;11.20;99.90;;;;;;5106794;27;39660;-60
2022/10/07 04:13:48;;;;;;;;;;;11.20;99.90;;;;;;5107023;27;36080;-58
2022/10/07 04:16:16;;;;;;;;;;;11.20;99.90;;;;;;5106597;27;37717;-58
2022/10/07 04:18:43;;;;;;;;;;;11.20;99.90;;;;;;5105449;27;37965;-60
2022/10/07 04:21:10;;;;;;;;;;;11.20;99.90;;;;;;5107200;27;36023;-60
2022/10/07 04:23:37;;;;;;;;;;;11.20;99.90;;;;;;5106895;27;36073;-59
2022/10/07 04:26:07;;;;;;;;;;;11.10;99.90;;;;;;5107386;27;36474;-59
2022/10/07 04:28:34;;;;;;;;;;;11.20;99.90;;;;;;5107652;27;38160;-59
2022/10/07 04:31:03;;;;;;;;;;;11.20;99.90;;;;;;5107927;27;38034;-60
2022/10/07 04:33:31;;;;;;;;;;;11.20;99.90;;;;;;5108941;27;36216;-60
2022/10/07 04:36:03;;;;;;;;;;;11.20;99.90;;;;;;5109407;27;36625;-60
2022/10/07 04:38:31;;;;;;;;;;;11.20;99.90;;;;;;5109317;27;38222;-60
2022/10/07 04:40:58;;;;;;;;;;;11.20;99.90;;;;;;5109909;27;37115;-59
2022/10/07 04:43:26;;;;;;;;;;;11.10;99.90;;;;;;5111099;27;36502;-60
2022/10/07 04:45:54;;;;;;;;;;;11.10;99.90;;;;;;5108774;27;37843;-59
2022/10/07 04:48:22;;;;;;;;;;;11.10;99.90;;;;;;5110696;27;38197;-60
2022/10/07 04:50:51;;;;;;;;;;;11.10;99.90;;;;;;5109599;27;36903;-60
2022/10/07 04:53:19;;;;;;;;;;;11.10;99.90;;;;;;5110401;27;37346;-60
2022/10/07 04:55:46;;;;;;;;;;;11.10;99.90;;;;;;5110860;27;37577;-60
2022/10/07 04:58:14;;;;;;;;;;;11.10;99.90;;;;;;5111115;27;38851;-60
2022/10/07 05:00:41;;;;;;;;;;;11.10;99.90;;;;;;5107756;27;37333;-60
2022/10/07 05:03:10;;;;;;;;;;;11.10;99.90;;;;;;5110537;27;35104;-60
2022/10/07 05:05:40;;;;;;;;;;;11.10;99.90;;;;;;5108156;27;36573;-60
2022/10/07 05:08:08;;;;;;;;;;;11.10;99.90;;;;;;5110230;27;37791;-60
2022/10/07 05:10:36;;;;;;;;;;;11.10;99.90;;;;;;5107796;27;36857;-60
2022/10/07 05:13:03;;;;;;;;;;;11.10;99.90;;;;;;5105008;27;36236;-60
2022/10/07 05:15:31;;;;;;;;;;;11.10;99.90;;;;;;5105144;27;36571;-60
2022/10/07 05:17:58;;;;;;;;;;;11.20;99.90;;;;;;5107646;27;38284;-60
2022/10/07 05:20:25;;;;;;;;;;;11.10;99.90;;;;;;5106650;27;35603;-60
2022/10/07 05:22:52;;;;;;;;;;;11.20;99.90;;;;;;5109401;27;37331;-59
2022/10/07 05:25:20;;;;;;;;;;;11.20;99.90;;;;;;5108092;27;36662;-59
2022/10/07 05:27:52;;;;;;;;;;;11.10;99.90;;;;;;5109823;27;36657;-59
2022/10/07 05:30:19;;;;;;;;;;;11.20;99.90;;;;;;5108252;27;37871;-59
2022/10/07 05:32:46;;;;;;;;;;;11.20;99.90;;;;;;5108443;27;37248;-59
2022/10/07 05:35:14;;;;;;;;;;;11.30;99.90;;;;;;5108959;27;37873;-60
2022/10/07 05:37:41;;;;;;;;;;;11.20;99.90;;;;;;5109306;27;37525;-60
2022/10/07 05:40:08;;;;;;;;;;;11.20;99.90;;;;;;5107410;27;37593;-60
2022/10/07 05:42:36;;;;;;;;;;;11.20;99.90;;;;;;5107947;27;36362;-60
2022/10/07 05:45:04;;;;;;;;;;;11.20;99.90;;;;;;5109340;27;37582;-60
2022/10/07 05:47:33;;;;;;;;;;;11.20;99.90;;;;;;5107535;27;38974;-60
2022/10/07 05:50:00;;;;;;;;;;;11.20;99.90;;;;;;5109830;27;37387;-60
2022/10/07 05:52:27;;;;;;;;;;;11.20;99.90;;;;;;5108118;27;36605;-60
2022/10/07 05:54:54;;;;;;;;;;;11.20;99.90;;;;;;5106886;27;37482;-60
2022/10/07 05:57:21;;;;;;;;;;;11.20;99.90;;;;;;5109145;27;37974;-60
2022/10/07 05:59:50;;;;;;;;;;;11.20;99.90;;;;;;5107903;27;35951;-60
2022/10/07 06:02:18;;;;;;;;;;;11.30;99.90;;;;;;5107265;27;34877;-60
2022/10/07 06:04:46;;;;;;;;;;;11.20;99.90;;;;;;5108362;27;37885;-60
2022/10/07 06:07:13;;;;;;;;;;;11.30;99.90;;;;;;5108548;27;40449;-60
2022/10/07 06:15:11;;;;;;;;;;;11.30;99.90;;;;;;5106599;27;38791;-60
2022/10/07 06:17:40;;;;;;;;;;;11.30;99.90;;;;;;5108231;27;37341;-60
2022/10/07 06:20:08;;;;;;;;;;;11.40;99.90;;;;;;5107954;27;36884;-60
2022/10/07 06:22:35;;;;;;;;;;;11.30;99.90;;;;;;5108539;27;36215;-60
2022/10/07 06:25:02;;;;;;;;;;;11.40;99.90;;;;;;5108419;27;37984;-60
2022/10/07 06:27:29;;;;;;;;;;;11.40;99.90;;;;;;5108504;27;36887;-60
2022/10/07 06:29:56;;;;;;;;;;;11.40;99.90;;;;;;5107692;27;39372;-60
2022/10/07 06:32:24;;;;;;;;;;;11.40;99.90;;;;;;5106980;27;35211;-60
2022/10/07 06:34:51;;;;;;;;;;;11.50;99.90;;;;;;5109676;27;37729;-60
2022/10/07 06:37:19;;;;;;;;;;;11.50;99.90;;;;;;5106235;27;38499;-60
2022/10/07 06:39:46;;;;;;;;;;;11.50;99.90;;;;;;5108649;27;35986;-60
2022/10/07 06:42:13;;;;;;;;;;;11.60;99.90;;;;;;5106965;27;37703;-60
2022/10/07 06:44:41;;;;;;;;;;;11.60;99.90;;;;;;5106278;27;37585;-60
2022/10/07 06:47:08;;;;;;;;;;;11.60;99.90;;;;;;5107400;27;38384;-60
2022/10/07 06:49:37;;;;;;;;;;;11.60;99.90;;;;;;5106723;27;37078;-60
2022/10/07 06:52:04;;;;;;;;;;;11.70;99.90;;;;;;5104083;27;36460;-60
2022/10/07 06:54:32;;;;;;;;;;;11.70;99.90;;;;;;5103217;27;38667;-60
2022/10/07 06:56:59;;;;;;;;;;;11.80;99.90;;;;;;5105978;27;36656;-60
2022/10/07 06:59:26;;;;;;;;;;;11.80;99.90;;;;;;5103160;27;37726;-60
2022/10/07 07:01:54;;;;;;;;;;;11.80;99.90;;;;;;5101337;27;36973;-61
2022/10/07 07:04:21;;;;;;;;;;;11.90;99.90;;;;;;5102881;27;39017;-60
2022/10/07 07:06:49;;;;;;;;;;;11.90;99.90;;;;;;5106351;27;37870;-60
2022/10/07 07:09:16;;;;;;;;;;;12.00;99.90;;;;;;5106714;27;37935;-61
2022/10/07 07:11:44;;;;;;;;;;;12.00;99.90;;;;;;5107460;27;36696;-60
2022/10/07 07:14:12;;;;;;;;;;;12.10;99.90;;;;;;5106519;27;40277;-60
2022/10/07 07:16:39;;;;;;;;;;;12.10;99.90;;;;;;5106528;27;37665;-60
2022/10/07 07:19:07;;;;;;;;;;;12.10;99.90;;;;;;5108339;27;35872;-60
2022/10/07 07:21:36;;;;;;;;;;;12.10;99.90;;;;;;5108707;27;37642;-60
2022/10/07 07:24:06;;;;;;;;;;;12.20;99.90;;;;;;5108175;27;36417;-60
2022/10/07 07:26:33;;;;;;;;;;;12.20;99.90;;;;;;5109001;27;38531;-60
2022/10/07 07:29:01;;;;;;;;;;;12.30;99.90;;;;;;5106534;27;35850;-60
2022/10/07 07:31:29;;;;;;;;;;;12.30;99.90;;;;;;5107564;27;36728;-60
2022/10/07 07:33:56;;;;;;;;;;;12.30;99.90;;;;;;5108091;27;37531;-60
2022/10/07 07:36:24;;;;;;;;;;;12.40;99.90;;;;;;5107177;27;36857;-60
2022/10/07 07:38:51;;;;;;;;;;;12.40;99.90;;;;;;5108379;27;37073;-60
2022/10/07 07:41:21;;;;;;;;;;;12.40;99.90;;;;;;5108219;27;36432;-60
2022/10/07 07:43:49;;;;;;;;;;;12.40;99.90;;;;;;5108263;27;37528;-60
2022/10/07 07:46:16;;;;;;;;;;;12.50;99.90;;;;;;5107367;27;38142;-60
2022/10/07 07:48:43;;;;;;;;;;;12.50;99.90;;;;;;5108428;27;37294;-60
2022/10/07 07:51:10;;;;;;;;;;;12.50;99.90;;;;;;5108170;27;35100;-60
2022/10/07 07:53:38;;;;;;;;;;;12.50;99.90;;;;;;5107892;27;37838;-60
2022/10/07 07:56:05;;;;;;;;;;;12.60;99.90;;;;;;5107422;27;39121;-60
2022/10/07 07:58:33;;;;;;;;;;;12.60;99.90;;;;;;5107980;27;37354;-60
2022/10/07 08:01:02;;;;;;;;;;;12.70;99.90;;;;;;5107379;27;36449;-60
2022/10/07 08:03:29;;;;;;;;;;;12.70;99.90;;;;;;5108111;27;37577;-60
2022/10/07 08:05:56;;;;;;;;;;;12.70;99.90;;;;;;5107732;27;36887;-60
2022/10/07 08:08:23;;;;;;;;;;;12.80;99.90;;;;;;5111647;27;36657;-60
2022/10/07 08:10:50;;;;;;;;;;;12.80;99.90;;;;;;5112168;27;37608;-60
2022/10/07 08:13:17;;;;;;;;;;;12.90;99.90;;;;;;5112741;27;36997;-60
2022/10/07 08:15:46;;;;;;;;;;;12.90;99.90;;;;;;5112142;27;38903;-60
2022/10/07 08:18:13;;;;;;;;;;;13.00;99.90;;;;;;5110875;27;37537;-60
2022/10/07 08:20:40;;;;;;;;;;;13.10;99.90;;;;;;5112078;27;36898;-60
2022/10/07 08:23:07;;;;;;;;;;;13.10;99.90;;;;;;5110329;27;38110;-58
2022/10/07 08:25:34;;;;;;;;;;;13.20;99.90;;;;;;5110565;27;38819;-58
2022/10/07 08:28:02;;;;;;;;;;;13.20;99.90;;;;;;5110113;27;37537;-58
2022/10/07 08:30:29;;;;;;;;;;;13.30;99.90;;;;;;5109665;27;36671;-60
2022/10/07 08:32:57;;;;;;;;;;;13.30;99.90;;;;;;5110630;27;38465;-60
2022/10/07 08:35:24;;;;;;;;;;;13.40;99.90;;;;;;5110395;27;38616;-60
2022/10/07 08:37:51;;;;;;;;;;;13.40;99.90;;;;;;5108401;27;37000;-60
2022/10/07 08:40:18;;;;;;;;;;;13.40;99.90;;;;;;5110930;27;38920;-60
2022/10/07 08:42:46;;;;;;;;;;;13.50;99.90;;;;;;5110254;27;37552;-60
2022/10/07 08:45:15;;;;;;;;;;;13.60;99.90;;;;;;5108549;27;36664;-60
2022/10/07 08:47:43;;;;;;;;;;;13.60;99.90;;;;;;5108376;27;38041;-60
2022/10/07 08:50:15;;;;;;;;;;;13.70;99.90;;;;;;5109743;27;37018;-60
2022/10/07 08:52:46;;;;;;;;;;;13.70;99.90;;;;;;5108654;27;37850;-60
2022/10/07 08:55:18;;;;;;;;;;;13.80;99.90;;;;;;5105616;27;37941;-60
2022/10/07 08:57:48;;;;;;;;;;;13.80;99.90;;;;;;5109512;27;37901;-60
2022/10/07 09:00:18;;;;;;;;;;;13.90;99.90;;;;;;5109396;27;36146;-60
2022/10/07 09:02:53;;;;;;;;;;;14.00;99.90;;;;;;5108566;27;38378;-60
2022/10/07 09:05:24;;;;;;;;;;;14.00;99.90;;;;;;5109034;27;38582;-60
2022/10/07 09:07:53;;;;;;;;;;;14.00;99.90;;;;;;5109647;27;38038;-61
2022/10/07 09:10:30;;;;;;;;;;;14.10;99.90;;;;;;5108094;27;36247;-58
2022/10/07 09:12:59;;;;;;;;;;;14.20;99.90;;;;;;5109432;27;38559;-58
2022/10/07 09:15:36;;;;;;;;;;;14.20;99.90;;;;;;5104577;27;38499;-60
2022/10/07 09:18:05;;;;;;;;;;;14.30;99.90;;;;;;5109318;27;38201;-60
2022/10/07 09:20:36;;;;;;;;;;;14.30;99.90;;;;;;5110316;27;36294;-60
2022/10/07 09:23:04;;;;;;;;;;;14.40;99.90;;;;;;5107954;27;36546;-60
2022/10/07 09:25:32;;;;;;;;;;;14.50;99.90;;;;;;5106989;27;38379;-58
2022/10/07 09:27:59;;;;;;;;;;;14.50;99.90;;;;;;5108375;27;36546;-58
2022/10/07 09:30:28;;;;;;;;;;;14.60;99.90;;;;;;5108708;27;36317;-60
2022/10/07 09:32:55;;;;;;;;;;;14.60;99.90;;;;;;5108461;27;37588;-60
2022/10/07 09:35:24;;;;;;;;;;;14.70;99.90;;;;;;5109286;27;37987;-58
2022/10/07 09:37:56;;;;;;;;;;;14.80;99.90;;;;;;5109106;27;38830;-60
2022/10/07 09:40:31;;;;;;;;;;;14.90;99.90;;;;;;5109277;27;36349;-58
2022/10/07 09:42:59;;;;;;;;;;;15.00;99.90;;;;;;5108159;27;40333;-61
2022/10/07 09:45:30;;;;;;;;;;;15.10;99.90;;;;;;5109112;27;38780;-58
2022/10/07 09:47:58;;;;;;;;;;;15.10;99.90;;;;;;5108496;27;37393;-58
2022/10/07 09:50:35;;;;;;;;;;;15.20;99.90;;;;;;5109692;27;37287;-58
2022/10/07 09:53:06;;;;;;;;;;;15.20;99.90;;;;;;5109543;27;38742;-60
2022/10/07 09:55:39;;;;;;;;;;;15.30;99.90;;;;;;5109346;27;38219;-58
2022/10/07 09:58:15;;;;;;;;;;;15.40;99.90;;;;;;5109140;27;37101;-58
2022/10/07 10:00:43;;;;;;;;;;;15.50;99.90;;;;;;5107718;27;37333;-60
2022/10/07 10:03:10;;;;;;;;;;;15.50;99.90;;;;;;5108788;27;37851;-61
2022/10/07 10:05:38;;;;;;;;;;;15.60;99.90;;;;;;5107645;27;37381;-58
2022/10/07 10:08:19;;;;;;;;;;;15.70;99.90;;;;;;5107902;27;38618;-58
2022/10/07 10:10:49;;;;;;;;;;;15.70;99.90;;;;;;5108314;27;36263;-58
2022/10/07 10:13:24;;;;;;;;;;;15.80;99.90;;;;;;5108886;27;37779;-58
2022/10/07 10:15:51;;;;;;;;;;;15.90;99.90;;;;;;5107858;27;38104;-60
2022/10/07 10:18:26;;;;;;;;;;;16.00;99.90;;;;;;5108008;27;35913;-58
2022/10/07 10:20:53;;;;;;;;;;;16.00;99.90;;;;;;5107643;27;35223;-58
2022/10/07 10:23:29;;;;;;;;;;;16.00;99.90;;;;;;5107482;27;37867;-60
2022/10/07 10:28:50;;;;;;;;;;;16.20;99.90;;;;;;5106752;27;39522;-60
2022/10/07 10:31:21;;;;;;;;;;;16.30;99.90;;;;;;5107288;27;36351;-58
2022/10/07 10:33:52;;;;;;;;;;;16.40;99.90;;;;;;5106536;27;37677;-60
2022/10/07 10:36:20;;;;;;;;;;;16.50;99.90;;;;;;5107034;27;38041;-58
2022/10/07 10:38:51;;;;;;;;;;;16.50;99.90;;;;;;5107640;27;38500;-58
2022/10/07 10:41:24;;;;;;;;;;;16.60;99.90;;;;;;5106298;27;36360;-58
2022/10/07 10:44:00;;;;;;;;;;;16.70;99.90;;;;;;5105126;27;40234;-58
2022/10/07 10:46:33;;;;;;;;;;;16.70;99.90;;;;;;5107808;27;36652;-58
2022/10/07 10:49:06;;;;;;;;;;;16.70;99.90;;;;;;5108521;27;37972;-58
2022/10/07 10:51:41;;;;;;;;;;;16.80;99.90;;;;;;5108499;27;35140;-60
2022/10/07 10:54:17;;;;;;;;;;;16.90;99.90;;;;;;5106817;27;39348;-58
2022/10/07 10:56:47;;;;;;;;;;;17.00;99.90;;;;;;5107379;27;39388;-60
2022/10/07 10:59:24;;;;;;;;;;;17.10;99.90;;;;;;5106619;27;37106;-60
2022/10/07 11:01:56;;;;;;;;;;;17.10;99.90;;;;;;5105366;27;36316;-60
2022/10/07 11:04:33;;;;;;;;;;;17.20;99.90;;;;;;5106698;27;37515;-61
2022/10/07 11:07:01;;;;;;;;;;;17.20;99.90;;;;;;5106698;27;36812;-60
2022/10/07 11:09:38;;;;;;;;;;;17.30;99.90;;;;;;5105984;27;37444;-60
2022/10/07 11:12:07;;;;;;;;;;;17.20;99.90;;;;;;5106079;27;36645;-58
2022/10/07 11:14:36;;;;;;;;;;;17.20;99.90;;;;;;5106838;27;37770;-61
2022/10/07 11:17:05;;;;;;;;;;;17.10;99.90;;;;;;5106333;27;36796;-58
2022/10/07 11:19:35;;;;;;;;;;;17.10;99.90;;;;;;5106278;27;37524;-58
2022/10/07 11:22:03;;;;;;;;;;;17.10;99.90;;;;;;5105707;27;36441;-60
2022/10/07 11:24:32;;;;;;;;;;;17.20;99.90;;;;;;5107108;27;39010;-58
2022/10/07 11:27:04;;;;;;;;;;;17.20;99.90;;;;;;5105370;27;38200;-60
2022/10/07 11:29:33;;;;;;;;;;;17.20;99.90;;;;;;5105976;27;37938;-58
2022/10/07 11:32:02;;;;;;;;;;;17.30;99.90;;;;;;5104679;27;35117;-61
2022/10/07 11:34:34;;;;;;;;;;;17.40;99.90;;;;;;5105762;27;38408;-60
2022/10/07 11:37:07;;;;;;;;;;;17.30;99.90;;;;;;5106007;27;38127;-58
2022/10/07 11:39:36;;;;;;;;;;;17.30;99.90;;;;;;5105862;27;38056;-58
2022/10/07 11:42:07;;;;;;;;;;;17.30;99.90;;;;;;5107572;27;35263;-58
2022/10/07 11:44:37;;;;;;;;;;;17.20;99.90;;;;;;5106312;27;38541;-60
2022/10/07 11:47:05;;;;;;;;;;;17.10;99.90;;;;;;5105699;27;37558;-60
2022/10/07 11:49:37;;;;;;;;;;;17.10;99.90;;;;;;5105728;27;37041;-58
2022/10/07 11:52:05;;;;;;;;;;;17.20;99.90;;;;;;5106740;27;36878;-58
2022/10/07 11:54:38;;;;;;;;;;;17.20;99.90;;;;;;5105206;27;38459;-58
2022/10/07 11:57:06;;;;;;;;;;;17.30;99.90;;;;;;5106095;27;39745;-58
2022/10/07 11:59:41;;;;;;;;;;;17.30;99.90;;;;;;5105626;27;38376;-60
2022/10/07 12:02:23;;;;;;;;;;;17.40;99.90;;;;;;5106179;27;36957;-58
2022/10/07 12:04:50;;;;;;;;;;;17.40;99.90;;;;;;5106481;27;38162;-60
2022/10/07 12:07:36;;;;;;;;;;;17.40;99.90;;;;;;5105673;27;38760;-58
2022/10/07 12:10:33;;;;;;;;;;;17.40;99.90;;;;;;5105824;27;38326;-58
2022/10/07 12:13:24;;;;;;;;;;;17.30;99.90;;;;;;5105338;27;37605;-58
2022/10/07 12:15:52;;;;;;;;;;;17.20;99.90;;;;;;5104272;27;37689;-58
2022/10/07 12:18:26;;;;;;;;;;;17.20;99.90;;;;;;5104585;27;38517;-58
2022/10/07 12:20:57;;;;;;;;;;;17.20;99.90;;;;;;5105404;27;38201;-58
2022/10/07 12:23:48;;;;;;;;;;;17.20;99.90;;;;;;5104561;27;37023;-58
2022/10/07 12:26:51;;;;;;;;;;;17.10;99.90;;;;;;5103621;27;38313;-58
2022/10/07 12:29:27;;;;;;;;;;;17.10;99.90;;;;;;5102820;27;37367;-58
2022/10/07 12:31:54;;;;;;;;;;;17.10;99.90;;;;;;5103548;27;36060;-58
2022/10/07 12:34:26;;;;;;;;;;;17.00;99.90;;;;;;5102849;27;36508;-58
2022/10/07 12:36:54;;;;;;;;;;;17.00;99.90;;;;;;5103835;27;37713;-58
2022/10/07 12:39:33;;;;;;;;;;;16.90;99.90;;;;;;5103331;27;37764;-58
2022/10/07 12:42:01;;;;;;;;;;;16.90;99.90;;;;;;5104104;27;37504;-58
2022/10/07 12:44:32;;;;;;;;;;;16.80;99.90;;;;;;5103252;27;36832;-58
2022/10/07 12:47:00;;;;;;;;;;;16.80;99.90;;;;;;5103447;27;37858;-58
2022/10/07 12:49:30;;;;;;;;;;;16.80;99.90;;;;;;5103787;27;38499;-58
2022/10/07 12:51:59;;;;;;;;;;;16.90;99.90;;;;;;5103696;27;35957;-58
2022/10/07 12:54:30;;;;;;;;;;;16.80;99.90;;;;;;5106633;27;34857;-58
2022/10/07 12:56:58;;;;;;;;;;;16.80;99.90;;;;;;5107594;27;37538;-58
2022/10/07 12:59:49;;;;;;;;;;;16.80;99.90;;;;;;5106724;27;38926;-58
2022/10/07 13:02:30;;;;;;;;;;;16.80;99.90;;;;;;5108356;27;36031;-58
2022/10/07 13:05:12;;;;;;;;;;;16.80;99.90;;;;;;5106745;27;36514;-58
2022/10/07 13:07:57;;;;;;;;;;;16.70;99.90;;;;;;5106877;27;36724;-58
2022/10/07 13:10:51;;;;;;;;;;;16.70;99.90;;;;;;5105877;27;37615;-58
2022/10/07 13:13:20;;;;;;;;;;;16.70;99.90;;;;;;5077390;27;37826;-58
2022/10/07 13:15:51;;;;;;;;;;;16.70;99.90;;;;;;5105096;27;36068;-58
2022/10/07 13:18:20;;;;;;;;;;;16.70;99.90;;;;;;5106662;27;39165;-58
2022/10/07 13:20:56;;;;;;;;;;;16.60;99.90;;;;;;5106813;27;38107;-58
2022/10/07 13:23:23;;;;;;;;;;;16.60;99.90;;;;;;5106776;27;37709;-58
2022/10/07 13:25:52;;;;;;;;;;;16.60;99.90;;;;;;5107985;27;35319;-58
2022/10/07 13:28:21;;;;;;;;;;;16.60;99.90;;;;;;5106427;27;38507;-60
2022/10/07 13:30:50;;;;;;;;;;;16.60;99.90;;;;;;5105638;27;36640;-61
2022/10/07 13:33:22;;;;;;;;;;;16.60;99.90;;;;;;5105913;27;38376;-60
2022/10/07 13:35:49;;;;;;;;;;;16.60;99.90;;;;;;5101209;27;37091;-60
2022/10/07 13:38:23;;;;;;;;;;;16.50;99.90;;;;;;5099603;27;39733;-60
2022/10/07 13:40:54;;;;;;;;;;;16.50;99.90;;;;;;5103137;27;37913;-60
2022/10/07 13:43:23;;;;;;;;;;;16.60;99.90;;;;;;5102405;27;37139;-60
2022/10/07 13:45:51;;;;;;;;;;;16.50;99.90;;;;;;5102688;27;37354;-60
2022/10/07 13:48:21;;;;;;;;;;;16.50;99.90;;;;;;5101752;27;38747;-60
2022/10/07 13:50:49;;;;;;;;;;;16.40;99.90;;;;;;5102485;27;38253;-60
2022/10/07 13:53:19;;;;;;;;;;;16.40;99.90;;;;;;5102334;27;36105;-60
2022/10/07 13:55:47;;;;;;;;;;;16.40;99.90;;;;;;5102277;27;36083;-60
2022/10/07 13:58:14;;;;;;;;;;;16.40;99.90;;;;;;5102348;27;36471;-60
2022/10/07 14:00:42;;;;;;;;;;;16.40;99.90;;;;;;5100752;27;40743;-60
2022/10/07 14:03:14;;;;;;;;;;;16.40;99.90;;;;;;5102593;27;38623;-60
2022/10/07 14:05:46;;;;;;;;;;;16.40;99.90;;;;;;5101339;27;36607;-60
2022/10/07 14:08:17;;;;;;;;;;;16.30;99.90;;;;;;5102381;27;37785;-60
2022/10/07 14:10:49;;;;;;;;;;;16.40;99.90;;;;;;5102717;27;37349;-60
2022/10/07 14:13:17;;;;;;;;;;;16.40;99.90;;;;;;5102588;27;37000;-60
2022/10/07 14:15:47;;;;;;;;;;;16.40;99.90;;;;;;5103495;27;36075;-60
2022/10/07 14:18:16;;;;;;;;;;;16.30;99.90;;;;;;5105092;27;37548;-60
2022/10/07 14:20:46;;;;;;;;;;;16.40;99.90;;;;;;5105901;27;38477;-61
2022/10/07 14:23:22;;;;;;;;;;;16.30;99.90;;;;;;5104660;27;36052;-60
2022/10/07 14:25:51;;;;;;;;;;;16.30;99.90;;;;;;5107500;27;37166;-60
2022/10/07 14:28:20;;;;;;;;;;;16.30;99.90;;;;;;5107251;27;39107;-60
2022/10/07 14:37:00;;;;;;;;;;;16.30;99.90;;;;;;5104471;27;39200;-60
2022/10/07 14:39:31;;;;;;;;;;;16.30;99.90;;;;;;5106095;27;39085;-60
2022/10/07 14:41:58;;;;;;;;;;;16.30;99.90;;;;;;5104729;27;36723;-60
2022/10/07 14:44:25;;;;;;;;;;;16.30;99.90;;;;;;5106317;27;38222;-60